createdAt,value
2022-07-26T19:46:08.702Z,26.10
2022-07-26T19:49:29.714Z,26.06
2022-07-26T19:52:50.626Z,26.05
2022-07-26T19:56:11.627Z,26.02
2022-07-26T19:59:32.616Z,26.00
2022-07-26T20:02:53.691Z,25.97
2022-07-26T20:06:14.680Z,25.91
2022-07-26T20:09:36.745Z,25.83
2022-07-26T20:12:57.665Z,25.80
2022-07-26T20:16:20.997Z,25.79
2022-07-26T20:19:41.631Z,25.76
2022-07-26T20:23:03.630Z,25.72
2022-07-26T20:26:24.691Z,25.69
2022-07-26T20:29:46.678Z,25.64
2022-07-26T20:33:10.707Z,25.59
2022-07-26T20:36:31.659Z,25.52
2022-07-26T20:39:52.652Z,25.48
2022-07-26T20:43:13.653Z,25.44
2022-07-26T20:46:34.708Z,25.40
2022-07-26T20:50:03.154Z,25.35
2022-07-26T20:53:24.732Z,25.28
2022-07-26T20:56:45.640Z,25.27
2022-07-26T21:00:06.686Z,25.23
2022-07-26T21:03:27.694Z,25.17
2022-07-26T21:06:49.669Z,25.13
2022-07-26T21:10:10.659Z,25.07
2022-07-26T21:13:31.701Z,24.98
2022-07-26T21:16:52.691Z,24.90
2022-07-26T21:20:14.659Z,24.83
2022-07-26T21:23:35.685Z,24.79
2022-07-26T21:26:56.679Z,24.70
2022-07-26T21:30:18.719Z,24.63
2022-07-26T21:33:42.393Z,24.57
2022-07-26T21:36:56.209Z,24.59
2022-07-26T21:40:13.678Z,24.62
2022-07-26T21:43:37.656Z,24.63
2022-07-26T21:46:59.684Z,24.62
2022-07-26T21:50:22.686Z,24.57
2022-07-26T21:53:43.908Z,24.50
2022-07-26T21:57:04.672Z,24.45
2022-07-26T22:00:29.667Z,24.41
2022-07-26T22:03:51.692Z,24.38
2022-07-26T22:07:13.701Z,24.35
2022-07-26T22:10:34.724Z,24.33
2022-07-26T22:14:00.234Z,24.27
2022-07-26T22:17:25.060Z,24.25
2022-07-26T22:20:48.677Z,24.22
2022-07-26T22:24:15.705Z,24.17
2022-07-26T22:27:39.678Z,24.17
2022-07-26T22:31:01.748Z,24.14
2022-07-26T22:34:22.705Z,24.09
2022-07-26T22:37:43.831Z,24.04
2022-07-26T22:41:05.705Z,24.04
2022-07-26T22:44:33.698Z,24.03
2022-07-26T22:47:58.704Z,24.02
2022-07-26T22:51:21.574Z,24.03
2022-07-26T22:54:42.684Z,24.02
2022-07-26T22:58:06.110Z,24.02
2022-07-26T23:01:27.746Z,24.05
2022-07-26T23:04:51.273Z,24.03
2022-07-26T23:08:43.873Z,23.99
2022-07-26T23:11:52.709Z,23.95
2022-07-26T23:15:13.706Z,23.90
2022-07-26T23:18:34.739Z,23.86
2022-07-26T23:21:55.714Z,23.77
2022-07-26T23:25:16.741Z,23.70
2022-07-26T23:28:38.517Z,23.64
2022-07-26T23:31:59.886Z,23.62
2022-07-26T23:35:20.719Z,23.58
2022-07-26T23:38:45.138Z,23.53
2022-07-26T23:42:08.717Z,23.51
2022-07-26T23:45:32.712Z,23.49
2022-07-26T23:48:53.792Z,23.47
2022-07-26T23:52:14.707Z,23.44
2022-07-26T23:55:39.872Z,23.40
2022-07-26T23:59:00.711Z,23.33
